Time;durP1;ratioP1;P1;durP2;ratioP2;P2;SDS_P1;SDS_P2;PMS_P1;PMS_P2;Temp;Humidity;BMP_temperature;BMP_pressure;BME280_temperature;BME280_humidity;BME280_pressure;Samples;Min_cycle;Max_cycle;Signal;HPM_P1;HPM_P2
2023/05/10 00:03:05;;;;;;;9.73;6.22;;;8.20;99.90;;;;;;25965323;22;20557;-48
2023/05/10 00:13:07;;;;;;;9.55;4.95;;;8.20;99.90;;;;;;25965531;22;20000;-47
2023/05/10 00:23:08;;;;;;;7.72;5.18;;;8.10;99.90;;;;;;25967741;22;20007;-60
2023/05/10 00:33:11;;;;;;;7.20;4.55;;;8.00;99.90;;;;;;25970981;22;20018;-51
2023/05/10 00:43:12;;;;;;;6.18;4.15;;;8.00;99.90;;;;;;25974503;22;20008;-47
2023/05/10 00:53:15;;;;;;;6.40;3.95;;;7.90;99.90;;;;;;25946098;22;20014;-59
2023/05/10 01:03:17;;;;;;;8.77;3.97;;;7.90;99.90;;;;;;25946181;22;20327;-59
2023/05/10 01:13:35;;;;;;;5.82;3.83;;;7.90;99.90;;;;;;25944872;22;20562;-47
2023/05/10 01:24:02;;;;;;;5.70;3.50;;;7.80;99.90;;;;;;26013887;22;20011;-59
2023/05/10 01:34:18;;;;;;;6.22;3.97;;;7.80;99.90;;;;;;25944042;22;20000;-45
2023/05/10 01:44:28;;;;;;;8.13;5.03;;;7.80;99.90;;;;;;25976540;22;20008;-50
2023/05/10 01:54:32;;;;;;;7.80;5.05;;;7.70;99.90;;;;;;25970420;22;20004;-60
2023/05/10 02:04:37;;;;;;;5.28;4.28;;;7.70;99.90;;;;;;25969868;22;19999;-61
2023/05/10 02:14:41;;;;;;;6.22;3.72;;;7.70;99.90;;;;;;25941982;22;20011;-51
2023/05/10 02:24:44;;;;;;;7.40;4.65;;;7.60;99.90;;;;;;25942241;22;20004;-61
2023/05/10 02:34:51;;;;;;;7.45;4.60;;;7.60;99.90;;;;;;25968562;22;20000;-47
2023/05/10 02:45:03;;;;;;;8.88;4.65;;;7.60;99.90;;;;;;25971636;22;20007;-47
2023/05/10 02:55:09;;;;;;;6.07;4.55;;;7.50;99.90;;;;;;25967042;22;20007;-49
2023/05/10 03:05:11;;;;;;;6.85;4.50;;;7.50;99.90;;;;;;25967290;22;20427;-50
2023/05/10 03:15:44;;;;;;;9.18;5.05;;;7.40;99.90;;;;;;25939902;22;20034;-48
2023/05/10 03:25:48;;;;;;;8.65;4.70;;;7.40;99.90;;;;;;26009256;22;20000;-50
2023/05/10 03:35:51;;;;;;;6.95;4.35;;;7.30;99.90;;;;;;25939200;22;20427;-61
2023/05/10 03:45:54;;;;;;;5.22;3.83;;;7.30;99.90;;;;;;25965998;22;20061;-49
2023/05/10 03:55:56;;;;;;;7.47;4.72;;;7.30;99.90;;;;;;25965962;22;20058;-49
2023/05/10 04:06:02;;;;;;;4.78;3.35;;;7.30;99.90;;;;;;25912978;22;20016;-49
2023/05/10 04:16:05;;;;;;;4.28;3.20;;;7.30;99.90;;;;;;25938251;22;20053;-62
2023/05/10 04:26:07;;;;;;;5.32;3.65;;;7.20;99.90;;;;;;25965312;22;20004;-60
2023/05/10 04:36:09;;;;;;;3.53;2.80;;;7.20;99.90;;;;;;25965168;22;20008;-63
2023/05/10 04:46:11;;;;;;;6.50;3.65;;;7.30;99.90;;;;;;25964361;22;20672;-49
2023/05/10 04:56:13;;;;;;;3.50;2.53;;;7.40;99.90;;;;;;25964856;22;20024;-61
2023/05/10 05:06:14;;;;;;;3.75;2.70;;;7.40;99.90;;;;;;25964399;22;20026;-47
2023/05/10 05:16:16;;;;;;;2.30;1.83;;;7.50;99.90;;;;;;25971873;22;20006;-48
2023/05/10 05:26:18;;;;;;;3.90;2.10;;;7.60;99.90;;;;;;25973093;22;20026;-62
2023/05/10 05:36:19;;;;;;;3.22;2.80;;;7.70;99.90;;;;;;25971344;22;20113;-50
2023/05/10 05:46:21;;;;;;;104.40;3.70;;;7.90;99.90;;;;;;25970496;22;20016;-46
2023/05/10 05:56:24;;;;;;;24.30;2.30;;;8.00;99.90;;;;;;25970509;22;20431;-46
2023/05/10 06:06:25;;;;;;;6.28;1.70;;;8.00;99.90;;;;;;25942230;22;20011;-47
2023/05/10 06:16:27;;;;;;;30.45;1.88;;;8.10;99.90;;;;;;25968494;22;20030;-49
2023/05/10 06:26:29;;;;;;;36.20;2.05;;;8.20;99.90;;;;;;25968849;22;20004;-60
2023/05/10 06:36:31;;;;;;;7.00;1.27;;;8.20;99.90;;;;;;25968007;22;20027;-47
2023/05/10 06:46:32;;;;;;;3.30;1.00;;;8.40;99.90;;;;;;25968104;22;20012;-49
2023/05/10 06:56:34;;;;;;;1.40;1.20;;;8.40;99.90;;;;;;25968252;22;20011;-45
2023/05/10 07:06:35;;;;;;;2.25;1.35;;;8.20;99.90;;;;;;25966017;22;20011;-45
2023/05/10 07:16:37;;;;;;;1.77;1.27;;;7.90;99.90;;;;;;25967098;22;20008;-49
2023/05/10 07:26:39;;;;;;;4.20;1.50;;;8.00;99.90;;;;;;25939256;22;20015;-45
2023/05/10 07:36:40;;;;;;;2.15;1.40;;;8.00;99.90;;;;;;25965774;22;20065;-60
2023/05/10 07:46:42;;;;;;;1.83;1.45;;;7.90;99.90;;;;;;25965764;22;20016;-46
2023/05/10 07:56:46;;;;;;;1.60;1.40;;;7.70;99.90;;;;;;25966308;22;20004;-50
2023/05/10 08:06:48;;;;;;;2.03;1.50;;;7.70;99.90;;;;;;25965244;22;20069;-47
2023/05/10 08:16:50;;;;;;;1.50;1.30;;;7.70;99.90;;;;;;25965493;22;20378;-45
2023/05/10 08:26:51;;;;;;;1.40;0.82;;;7.60;99.90;;;;;;25965511;22;20501;-58
2023/05/10 08:36:53;;;;;;;2.20;0.90;;;7.70;99.90;;;;;;25965441;22;20415;-47
2023/05/10 08:46:56;;;;;;;2.10;0.57;;;7.60;99.90;;;;;;25969245;22;20074;-59
2023/05/10 08:56:58;;;;;;;1.73;0.30;;;7.70;99.90;;;;;;25972626;22;20346;-48
2023/05/10 09:07:00;;;;;;;0.63;0.30;;;7.70;99.90;;;;;;25971238;22;20003;-47
2023/05/10 09:17:02;;;;;;;0.32;0.25;;;7.70;99.90;;;;;;25973569;22;20304;-47
2023/05/10 09:27:05;;;;;;;0.10;0.00;;;7.70;99.90;;;;;;25971757;22;20061;-58
2023/05/10 09:37:07;;;;;;;0.10;0.10;;;7.60;99.90;;;;;;25971072;22;20012;-46
2023/05/10 09:47:09;;;;;;;0.10;0.10;;;7.80;99.90;;;;;;25970559;22;20097;-57
2023/05/10 09:57:21;;;;;;;0.45;0.03;;;7.90;99.90;;;;;;25970330;22;20010;-48
2023/05/10 10:07:27;;;;;;;0.40;0.10;;;7.80;99.90;;;;;;26011307;22;20326;-59
2023/05/10 10:17:31;;;;;;;0.00;0.00;;;7.70;99.90;;;;;;26011968;22;20003;-59
2023/05/10 10:27:53;;;;;;;0.00;0.00;;;7.70;99.90;;;;;;25969077;22;20338;-59
2023/05/10 10:37:54;;;;;;;0.20;0.00;;;7.50;99.90;;;;;;25949093;22;20011;-58
2023/05/10 10:48:21;;;;;;;0.30;0.00;;;7.40;99.90;;;;;;25968330;22;20020;-49
2023/05/10 10:58:33;;;;;;;1.30;0.00;;;7.20;99.90;;;;;;25967924;22;20008;-59
2023/05/10 11:08:45;;;;;;;2.47;0.00;;;7.10;99.90;;;;;;26009685;22;20053;-59
2023/05/10 11:19:12;;;;;;;0.45;0.00;;;7.00;99.90;;;;;;26009222;22;20475;-46
2023/05/10 11:29:13;;;;;;;0.00;0.00;;;7.10;99.90;;;;;;25939451;22;20008;-49
2023/05/10 11:39:15;;;;;;;0.10;0.00;;;7.20;99.90;;;;;;25966643;22;20496;-46
2023/05/10 11:49:17;;;;;;;0.88;0.00;;;7.40;99.90;;;;;;25965902;22;20069;-48
2023/05/10 11:59:19;;;;;;;0.00;0.00;;;7.10;99.90;;;;;;25965879;22;20008;-58
2023/05/10 12:09:21;;;;;;;0.00;0.00;;;6.90;99.90;;;;;;25964695;22;20369;-58
2023/05/10 12:19:22;;;;;;;0.22;0.00;;;7.00;99.90;;;;;;25968018;22;20053;-58
2023/05/10 12:29:24;;;;;;;0.25;0.00;;;7.10;99.90;;;;;;25973996;22;20000;-48
2023/05/10 12:39:43;;;;;;;0.00;0.00;;;7.00;99.90;;;;;;25974342;22;20027;-59
2023/05/10 12:49:44;;;;;;;0.10;0.00;;;7.20;99.90;;;;;;25986588;22;20019;-49
2023/05/10 12:59:47;;;;;;;0.00;0.00;;;7.10;99.90;;;;;;25972740;22;20377;-48
2023/05/10 13:09:48;;;;;;;0.00;0.00;;;7.10;99.90;;;;;;25971306;22;20007;-47
2023/05/10 13:19:50;;;;;;;0.57;0.00;;;7.10;99.90;;;;;;25971845;22;20084;-59
2023/05/10 13:29:52;;;;;;;1.33;0.00;;;7.10;99.90;;;;;;25971478;22;20008;-46
2023/05/10 13:39:54;;;;;;;0.00;0.00;;;6.90;99.90;;;;;;25971099;22;20004;-48
2023/05/10 13:49:55;;;;;;;0.32;0.00;;;6.90;99.90;;;;;;25970608;22;20038;-45
2023/05/10 13:59:58;;;;;;;0.00;0.00;;;6.90;99.90;;;;;;25970167;22;20069;-49
2023/05/10 14:10:00;;;;;;;1.75;0.00;;;6.70;99.90;;;;;;25968906;22;20007;-48
2023/05/10 14:20:03;;;;;;;0.40;0.00;;;6.80;99.90;;;;;;25969136;22;20004;-48
2023/05/10 14:30:05;;;;;;;0.00;0.00;;;6.70;99.90;;;;;;25969295;22;20018;-60
2023/05/10 14:40:09;;;;;;;0.30;0.00;;;6.60;99.90;;;;;;25968517;22;20012;-49
2023/05/10 14:50:10;;;;;;;0.17;0.03;;;6.60;99.90;;;;;;25968404;22;20007;-45
2023/05/10 15:00:15;;;;;;;0.05;0.00;;;6.80;99.90;;;;;;25968022;22;20073;-50
2023/05/10 15:10:17;;;;;;;0.00;0.00;;;6.70;99.90;;;;;;25967438;22;20015;-48
2023/05/10 15:20:19;;;;;;;0.28;0.00;;;6.60;99.90;;;;;;25967021;22;20322;-60
2023/05/10 15:30:21;;;;;;;0.00;0.00;;;6.50;99.90;;;;;;25966796;22;20057;-49
2023/05/10 15:40:23;;;;;;;0.00;0.00;;;6.30;99.90;;;;;;25966638;22;20308;-57
2023/05/10 15:50:25;;;;;;;0.00;0.00;;;6.20;99.90;;;;;;25966212;22;20019;-51
2023/05/10 16:00:27;;;;;;;0.00;0.00;;;6.30;99.90;;;;;;25966103;22;20008;-48
2023/05/10 16:10:32;;;;;;;0.00;0.00;;;6.20;99.90;;;;;;25964639;22;20373;-46
2023/05/10 16:20:34;;;;;;;0.00;0.00;;;6.20;99.90;;;;;;25965109;22;20194;-50
2023/05/10 16:30:35;;;;;;;0.00;0.00;;;6.10;99.90;;;;;;25965114;22;20352;-47
2023/05/10 16:40:38;;;;;;;0.00;0.00;;;6.00;99.90;;;;;;25965397;22;20129;-49
2023/05/10 16:50:43;;;;;;;0.00;0.00;;;5.90;99.90;;;;;;25964591;22;20018;-50
2023/05/10 17:00:45;;;;;;;0.10;0.00;;;5.80;99.90;;;;;;25964434;22;20377;-45
2023/05/10 17:10:47;;;;;;;0.55;0.00;;;5.70;99.90;;;;;;25970862;22;20019;-50
2023/05/10 17:20:50;;;;;;;0.00;0.00;;;5.70;99.90;;;;;;25972133;22;20062;-49
2023/05/10 17:30:56;;;;;;;0.10;0.00;;;5.60;99.90;;;;;;25971490;22;19999;-48
2023/05/10 17:40:58;;;;;;;0.00;0.00;;;5.50;99.90;;;;;;26013220;22;20004;-47
2023/05/10 17:51:00;;;;;;;0.00;0.00;;;5.40;99.90;;;;;;25970750;22;20016;-49
2023/05/10 18:01:02;;;;;;;0.00;0.00;;;5.30;99.90;;;;;;25970639;22;20377;-44
2023/05/10 18:11:03;;;;;;;0.00;0.00;;;5.30;99.90;;;;;;25942786;22;20019;-46
2023/05/10 18:21:05;;;;;;;2.42;0.00;;;5.30;99.90;;;;;;25968622;22;20468;-48
2023/05/10 18:31:07;;;;;;;0.10;0.00;;;5.30;99.90;;;;;;25968306;22;20011;-50
2023/05/10 18:41:12;;;;;;;0.75;0.00;;;5.30;99.90;;;;;;25941712;22;20038;-49
2023/05/10 18:51:14;;;;;;;0.00;0.00;;;5.20;99.90;;;;;;25968378;22;20012;-62
2023/05/10 19:01:16;;;;;;;0.00;0.00;;;5.10;99.90;;;;;;25967835;22;20312;-50
2023/05/10 19:11:20;;;;;;;0.32;0.00;;;5.00;99.90;;;;;;25966838;22;20008;-51
2023/05/10 19:21:23;;;;;;;0.77;0.00;;;5.00;99.90;;;;;;25966798;22;20068;-46
2023/05/10 19:31:26;;;;;;;0.00;0.00;;;5.10;99.90;;;;;;25965758;22;20003;-47
2023/05/10 19:41:28;;;;;;;0.00;0.00;;;5.00;99.90;;;;;;25968306;22;20011;-61
2023/05/10 19:51:29;;;;;;;0.00;0.00;;;5.00;99.90;;;;;;25966214;22;20323;-61
2023/05/10 20:01:31;;;;;;;0.55;0.00;;;4.90;99.90;;;;;;25965833;22;20011;-61
2023/05/10 20:11:33;;;;;;;0.00;0.00;;;4.90;99.90;;;;;;25966099;22;20010;-47
2023/05/10 20:21:35;;;;;;;0.00;0.00;;;4.90;99.90;;;;;;25965585;22;20069;-60
2023/05/10 20:31:37;;;;;;;1.45;0.00;;;4.80;99.90;;;;;;25965570;22;20008;-46
2023/05/10 20:41:39;;;;;;;0.98;0.00;;;4.80;99.90;;;;;;25970680;22;20501;-61
2023/05/10 20:51:40;;;;;;;0.03;0.00;;;4.80;99.90;;;;;;25973359;22;20011;-61
2023/05/10 21:01:43;;;;;;;0.00;0.00;;;4.90;99.90;;;;;;25973155;22;20053;-62
2023/05/10 21:11:45;;;;;;;0.05;0.00;;;4.90;99.90;;;;;;25972768;22;20057;-60
2023/05/10 21:21:47;;;;;;;0.00;0.00;;;4.90;99.90;;;;;;25971829;22;20101;-60
2023/05/10 21:31:49;;;;;;;0.00;0.00;;;5.10;99.90;;;;;;25971827;22;20004;-62
2023/05/10 21:41:51;;;;;;;0.00;0.00;;;5.10;99.90;;;;;;25971307;22;20407;-61
2023/05/10 21:51:53;;;;;;;0.00;0.00;;;5.10;99.90;;;;;;25970926;22;20016;-49
2023/05/10 22:01:55;;;;;;;0.00;0.00;;;5.20;99.90;;;;;;25970666;22;20011;-60
2023/05/10 22:11:57;;;;;;;0.10;0.00;;;5.10;99.90;;;;;;25970255;22;20022;-61
2023/05/10 22:21:59;;;;;;;0.00;0.00;;;5.10;99.90;;;;;;25969514;22;20308;-61
2023/05/10 22:32:04;;;;;;;0.00;0.00;;;5.10;99.90;;;;;;25969272;22;20003;-61
2023/05/10 22:42:06;;;;;;;0.00;0.00;;;5.00;99.90;;;;;;25968682;22;20003;-61
2023/05/10 22:52:08;;;;;;;0.00;0.00;;;4.90;99.90;;;;;;25968538;22;20022;-61
2023/05/10 23:02:10;;;;;;;0.00;0.00;;;5.00;99.90;;;;;;25967875;22;20377;-47
2023/05/10 23:12:12;;;;;;;0.00;0.00;;;5.00;99.90;;;;;;25967826;22;20013;-61
2023/05/10 23:22:14;;;;;;;0.00;0.00;;;5.00;99.90;;;;;;25966968;22;20000;-46
2023/05/10 23:32:15;;;;;;;0.00;0.00;;;5.00;99.90;;;;;;25966998;22;20004;-63
2023/05/10 23:42:17;;;;;;;1.55;0.00;;;4.90;99.90;;;;;;25966555;22;20008;-48
2023/05/10 23:52:23;;;;;;;0.00;0.00;;;4.90;99.90;;;;;;25965639;22;20030;-56
